Terminal Aerodrome Forecast
Issued by NWS St Louis, MO

Home | Current Version | Previous Version | Text Only | Print | Product List | Glossary On
Versions: 1 2 3 4 5 6 7 8 9 10 11 12 13 14 15 16 17 18 19 20 21 22 23 24 25 26
000
FTUS43 KLSX 260500
TAFSTL
TAF
KSTL 260530Z 2606/2712 35012KT 3SM -RA BR SCT009 OVC015
      TEMPO 2606/2609 BKN009
     FM261100 33012KT P6SM BKN100
     FM261800 32012KT P6SM SKC
     FM270400 35005KT P6SM SCT050 BKN100=

USA.gov is the U.S. government's official web portal to all federal, state and local government web resources and services.